sensor_id;sensor_type;location;lat;lon;timestamp;pressure;altitude;pressure_sealevel;temperature;humidity
37368;BME280;23240;43.210;27.910;2023-03-23T00:00:52;101177.38;;;8.56;100.00
37368;BME280;23240;43.210;27.910;2023-03-23T00:03:19;101183.66;;;8.55;100.00
37368;BME280;23240;43.210;27.910;2023-03-23T00:05:46;101176.41;;;8.57;100.00
37368;BME280;23240;43.210;27.910;2023-03-23T00:08:18;101174.59;;;8.58;100.00
37368;BME280;23240;43.210;27.910;2023-03-23T00:10:49;101171.06;;;8.57;100.00
37368;BME280;23240;43.210;27.910;2023-03-23T00:13:17;101174.50;;;8.59;100.00
37368;BME280;23240;43.210;27.910;2023-03-23T00:15:45;101165.44;;;8.62;100.00
37368;BME280;23240;43.210;27.910;2023-03-23T00:18:10;101172.47;;;8.63;100.00
37368;BME280;23240;43.210;27.910;2023-03-23T00:20:46;101171.41;;;8.65;100.00
37368;BME280;23240;43.210;27.910;2023-03-23T00:23:14;101173.22;;;8.65;100.00
37368;BME280;23240;43.210;27.910;2023-03-23T00:25:51;101179.41;;;8.65;100.00
37368;BME280;23240;43.210;27.910;2023-03-23T00:28:18;101165.31;;;8.63;100.00
37368;BME280;23240;43.210;27.910;2023-03-23T00:30:53;101167.03;;;8.64;100.00
37368;BME280;23240;43.210;27.910;2023-03-23T00:33:21;101163.81;;;8.59;100.00
37368;BME280;23240;43.210;27.910;2023-03-23T00:35:47;101166.47;;;8.59;100.00
37368;BME280;23240;43.210;27.910;2023-03-23T00:38:13;101169.38;;;8.56;100.00
37368;BME280;23240;43.210;27.910;2023-03-23T00:40:39;101169.97;;;8.47;100.00
37368;BME280;23240;43.210;27.910;2023-03-23T00:43:04;101170.72;;;8.49;100.00
37368;BME280;23240;43.210;27.910;2023-03-23T00:45:30;101158.44;;;8.46;100.00
37368;BME280;23240;43.210;27.910;2023-03-23T00:47:55;101164.94;;;8.42;100.00
37368;BME280;23240;43.210;27.910;2023-03-23T00:50:21;101157.97;;;8.40;100.00
37368;BME280;23240;43.210;27.910;2023-03-23T00:52:47;101156.16;;;8.40;100.00
37368;BME280;23240;43.210;27.910;2023-03-23T00:55:14;101157.97;;;8.40;100.00
37368;BME280;23240;43.210;27.910;2023-03-23T00:57:39;101157.00;;;8.41;100.00
37368;BME280;23240;43.210;27.910;2023-03-23T01:00:05;101159.59;;;8.42;100.00
37368;BME280;23240;43.210;27.910;2023-03-23T01:02:39;101155.13;;;8.43;100.00
37368;BME280;23240;43.210;27.910;2023-03-23T01:05:05;101154.81;;;8.47;100.00
37368;BME280;23240;43.210;27.910;2023-03-23T01:07:31;101152.03;;;8.49;100.00
37368;BME280;23240;43.210;27.910;2023-03-23T01:09:56;101151.91;;;8.50;100.00
37368;BME280;23240;43.210;27.910;2023-03-23T01:12:22;101144.69;;;8.53;100.00
37368;BME280;23240;43.210;27.910;2023-03-23T01:14:49;101151.63;;;8.55;100.00
37368;BME280;23240;43.210;27.910;2023-03-23T01:17:15;101147.34;;;8.53;100.00
37368;BME280;23240;43.210;27.910;2023-03-23T01:19:40;101146.28;;;8.55;100.00
37368;BME280;23240;43.210;27.910;2023-03-23T01:22:07;101149.91;;;8.54;100.00
37368;BME280;23240;43.210;27.910;2023-03-23T01:24:32;101148.00;;;8.56;100.00
37368;BME280;23240;43.210;27.910;2023-03-23T01:26:57;101148.09;;;8.55;100.00
37368;BME280;23240;43.210;27.910;2023-03-23T01:29:26;101153.25;;;8.58;100.00
37368;BME280;23240;43.210;27.910;2023-03-23T01:31:52;101147.03;;;8.57;100.00
37368;BME280;23240;43.210;27.910;2023-03-23T01:34:17;101153.34;;;8.56;100.00
37368;BME280;23240;43.210;27.910;2023-03-23T01:36:42;101149.91;;;8.54;100.00
37368;BME280;23240;43.210;27.910;2023-03-23T01:39:08;101155.25;;;8.54;100.00
37368;BME280;23240;43.210;27.910;2023-03-23T01:41:33;101149.72;;;8.57;100.00
37368;BME280;23240;43.210;27.910;2023-03-23T01:44:00;101152.09;;;8.62;100.00
37368;BME280;23240;43.210;27.910;2023-03-23T01:46:27;101151.53;;;8.57;100.00
37368;BME280;23240;43.210;27.910;2023-03-23T01:48:52;101159.13;;;8.63;100.00
37368;BME280;23240;43.210;27.910;2023-03-23T01:51:19;101158.28;;;8.62;100.00
37368;BME280;23240;43.210;27.910;2023-03-23T01:53:46;101158.28;;;8.62;100.00
37368;BME280;23240;43.210;27.910;2023-03-23T01:56:16;101151.00;;;8.64;100.00
37368;BME280;23240;43.210;27.910;2023-03-23T01:58:45;101149.09;;;8.66;100.00
37368;BME280;23240;43.210;27.910;2023-03-23T02:01:12;101147.38;;;8.65;100.00
37368;BME280;23240;43.210;27.910;2023-03-23T02:03:41;101151.00;;;8.64;100.00
37368;BME280;23240;43.210;27.910;2023-03-23T02:06:08;101152.94;;;8.62;100.00
37368;BME280;23240;43.210;27.910;2023-03-23T02:08:34;101156.03;;;8.56;100.00
37368;BME280;23240;43.210;27.910;2023-03-23T02:11:00;101156.97;;;8.55;100.00
37368;BME280;23240;43.210;27.910;2023-03-23T02:13:26;101156.03;;;8.56;100.00
37368;BME280;23240;43.210;27.910;2023-03-23T02:23:38;101159.63;;;8.55;100.00
37368;BME280;23240;43.210;27.910;2023-03-23T02:26:27;101155.47;;;8.51;100.00
37368;BME280;23240;43.210;27.910;2023-03-23T02:39:13;101161.59;;;8.39;100.00
37368;BME280;23240;43.210;27.910;2023-03-23T02:44:24;101162.47;;;8.39;100.00
37368;BME280;23240;43.210;27.910;2023-03-23T02:46:55;101177.22;;;8.31;100.00
37368;BME280;23240;43.210;27.910;2023-03-23T02:49:21;101178.19;;;8.30;100.00
37368;BME280;23240;43.210;27.910;2023-03-23T02:51:47;101173.03;;;8.27;100.00
37368;BME280;23240;43.210;27.910;2023-03-23T02:54:13;101168.97;;;8.21;100.00
37368;BME280;23240;43.210;27.910;2023-03-23T02:56:41;101178.38;;;8.27;100.00
37368;BME280;23240;43.210;27.910;2023-03-23T02:59:07;101183.72;;;8.27;100.00
37368;BME280;23240;43.210;27.910;2023-03-23T03:03:57;101182.56;;;8.31;100.00
37368;BME280;23240;43.210;27.910;2023-03-23T03:06:33;101185.34;;;8.29;100.00
37368;BME280;23240;43.210;27.910;2023-03-23T03:09:05;101183.16;;;8.21;100.00
37368;BME280;23240;43.210;27.910;2023-03-23T03:11:33;101184.59;;;8.27;100.00
37368;BME280;23240;43.210;27.910;2023-03-23T03:21:22;101191.25;;;8.34;100.00
37368;BME280;23240;43.210;27.910;2023-03-23T03:23:50;101188.56;;;8.34;100.00
37368;BME280;23240;43.210;27.910;2023-03-23T03:26:17;101186.75;;;8.35;100.00
37368;BME280;23240;43.210;27.910;2023-03-23T03:28:46;101192.09;;;8.35;100.00
37368;BME280;23240;43.210;27.910;2023-03-23T03:31:12;101186.97;;;8.32;100.00
37368;BME280;23240;43.210;27.910;2023-03-23T03:33:38;101192.31;;;8.32;100.00
37368;BME280;23240;43.210;27.910;2023-03-23T03:36:04;101191.34;;;8.33;100.00
37368;BME280;23240;43.210;27.910;2023-03-23T03:38:43;101192.50;;;8.29;100.00
37368;BME280;23240;43.210;27.910;2023-03-23T03:41:08;101195.91;;;8.31;100.00
37368;BME280;23240;43.210;27.910;2023-03-23T03:43:34;101195.72;;;8.34;100.00
37368;BME280;23240;43.210;27.910;2023-03-23T03:46:00;101196.75;;;8.31;100.00
37368;BME280;23240;43.210;27.910;2023-03-23T03:48:25;101201.25;;;8.31;100.00
37368;BME280;23240;43.210;27.910;2023-03-23T03:50:50;101193.66;;;8.24;100.00
37368;BME280;23240;43.210;27.910;2023-03-23T03:53:17;101197.47;;;8.20;100.00
37368;BME280;23240;43.210;27.910;2023-03-23T03:55:42;101202.13;;;8.17;100.00
37368;BME280;23240;43.210;27.910;2023-03-23T03:58:13;101203.22;;;8.14;100.00
37368;BME280;23240;43.210;27.910;2023-03-23T04:00:39;101206.84;;;8.13;100.00
37368;BME280;23240;43.210;27.910;2023-03-23T04:03:05;101207.59;;;8.15;100.00
37368;BME280;23240;43.210;27.910;2023-03-23T04:05:31;101212.63;;;8.20;100.00
37368;BME280;23240;43.210;27.910;2023-03-23T04:07:58;101212.72;;;8.18;100.00
37368;BME280;23240;43.210;27.910;2023-03-23T04:10:27;101214.63;;;8.16;100.00
37368;BME280;23240;43.210;27.910;2023-03-23T04:12:52;101210.13;;;8.17;100.00
37368;BME280;23240;43.210;27.910;2023-03-23T04:15:18;101217.22;;;8.18;100.00
37368;BME280;23240;43.210;27.910;2023-03-23T04:17:43;101217.09;;;8.19;100.00
37368;BME280;23240;43.210;27.910;2023-03-23T04:20:10;101214.44;;;8.19;100.00
37368;BME280;23240;43.210;27.910;2023-03-23T04:22:53;101215.28;;;8.20;100.00
37368;BME280;23240;43.210;27.910;2023-03-23T04:25:20;101219.66;;;8.21;100.00
37368;BME280;23240;43.210;27.910;2023-03-23T04:27:46;101215.09;;;8.23;100.00
37368;BME280;23240;43.210;27.910;2023-03-23T04:30:17;101214.88;;;8.26;100.00
37368;BME280;23240;43.210;27.910;2023-03-23T04:32:42;101221.75;;;8.30;100.00
37368;BME280;23240;43.210;27.910;2023-03-23T04:35:12;101218.78;;;8.35;100.00
37368;BME280;23240;43.210;27.910;2023-03-23T04:37:39;101220.34;;;8.39;100.00
37368;BME280;23240;43.210;27.910;2023-03-23T04:40:06;101220.44;;;8.37;100.00
37368;BME280;23240;43.210;27.910;2023-03-23T04:42:35;101224.63;;;8.41;100.00
37368;BME280;23240;43.210;27.910;2023-03-23T04:45:02;101223.75;;;8.41;100.00
37368;BME280;23240;43.210;27.910;2023-03-23T04:47:30;101231.88;;;8.39;100.00
37368;BME280;23240;43.210;27.910;2023-03-23T04:49:56;101227.19;;;8.43;100.00
37368;BME280;23240;43.210;27.910;2023-03-23T04:52:23;101225.50;;;8.42;100.00
37368;BME280;23240;43.210;27.910;2023-03-23T04:54:50;101226.53;;;8.39;100.00
37368;BME280;23240;43.210;27.910;2023-03-23T04:57:15;101231.75;;;8.41;100.00
37368;BME280;23240;43.210;27.910;2023-03-23T04:59:41;101238.44;;;8.48;100.00
37368;BME280;23240;43.210;27.910;2023-03-23T05:02:06;101235.19;;;8.43;100.00
37368;BME280;23240;43.210;27.910;2023-03-23T05:04:32;101234.44;;;8.41;100.00
37368;BME280;23240;43.210;27.910;2023-03-23T05:06:58;101236.06;;;8.43;100.00
37368;BME280;23240;43.210;27.910;2023-03-23T05:09:24;101243.22;;;8.43;100.00
37368;BME280;23240;43.210;27.910;2023-03-23T05:11:49;101243.00;;;8.46;100.00
37368;BME280;23240;43.210;27.910;2023-03-23T05:14:14;101250.81;;;8.49;100.00
37368;BME280;23240;43.210;27.910;2023-03-23T05:16:40;101253.94;;;8.56;100.00
37368;BME280;23240;43.210;27.910;2023-03-23T05:19:05;101252.91;;;8.58;100.00
37368;BME280;23240;43.210;27.910;2023-03-23T05:21:32;101254.59;;;8.59;100.00
37368;BME280;23240;43.210;27.910;2023-03-23T05:23:57;101250.78;;;8.63;100.00
37368;BME280;23240;43.210;27.910;2023-03-23T05:26:25;101257.03;;;8.77;100.00
37368;BME280;23240;43.210;27.910;2023-03-23T05:28:54;101249.34;;;8.85;100.00
37368;BME280;23240;43.210;27.910;2023-03-23T05:31:20;101256.69;;;8.95;100.00
37368;BME280;23240;43.210;27.910;2023-03-23T05:33:46;101251.97;;;8.99;100.00
37368;BME280;23240;43.210;27.910;2023-03-23T05:36:11;101256.63;;;9.10;100.00
37368;BME280;23240;43.210;27.910;2023-03-23T05:38:39;101256.31;;;9.14;100.00
37368;BME280;23240;43.210;27.910;2023-03-23T05:41:05;101263.78;;;9.22;100.00
37368;BME280;23240;43.210;27.910;2023-03-23T05:43:31;101255.47;;;9.26;100.00
37368;BME280;23240;43.210;27.910;2023-03-23T05:45:57;101259.44;;;9.34;100.00
37368;BME280;23240;43.210;27.910;2023-03-23T05:48:22;101261.69;;;9.40;100.00
37368;BME280;23240;43.210;27.910;2023-03-23T05:50:48;101268.09;;;9.37;100.00
37368;BME280;23240;43.210;27.910;2023-03-23T05:53:13;101265.41;;;9.37;100.00
37368;BME280;23240;43.210;27.910;2023-03-23T05:55:38;101275.38;;;9.35;100.00
37368;BME280;23240;43.210;27.910;2023-03-23T05:58:04;101276.41;;;9.33;100.00
37368;BME280;23240;43.210;27.910;2023-03-23T06:00:30;101268.84;;;9.39;100.00
37368;BME280;23240;43.210;27.910;2023-03-23T06:02:56;101272.91;;;9.45;100.00
37368;BME280;23240;43.210;27.910;2023-03-23T06:05:21;101270.75;;;9.37;100.00
37368;BME280;23240;43.210;27.910;2023-03-23T06:07:47;101264.34;;;9.40;100.00
37368;BME280;23240;43.210;27.910;2023-03-23T06:10:12;101275.16;;;9.38;100.00
37368;BME280;23240;43.210;27.910;2023-03-23T06:12:38;101275.78;;;9.42;100.00
37368;BME280;23240;43.210;27.910;2023-03-23T06:15:04;101275.06;;;9.40;100.00
37368;BME280;23240;43.210;27.910;2023-03-23T06:17:32;101282.66;;;9.46;100.00
37368;BME280;23240;43.210;27.910;2023-03-23T06:19:57;101282.44;;;9.49;100.00
37368;BME280;23240;43.210;27.910;2023-03-23T06:22:22;101281.28;;;9.53;100.00
37368;BME280;23240;43.210;27.910;2023-03-23T06:24:48;101288.69;;;9.62;100.00
37368;BME280;23240;43.210;27.910;2023-03-23T06:27:14;101292.41;;;9.60;100.00
37368;BME280;23240;43.210;27.910;2023-03-23T06:29:39;101291.88;;;9.55;100.00
37368;BME280;23240;43.210;27.910;2023-03-23T06:32:05;101284.47;;;9.45;100.00
37368;BME280;23240;43.210;27.910;2023-03-23T06:34:30;101295.28;;;9.44;100.00
37368;BME280;23240;43.210;27.910;2023-03-23T06:36:57;101298.25;;;9.39;100.00
37368;BME280;23240;43.210;27.910;2023-03-23T06:39:23;101299.34;;;9.49;100.00
37368;BME280;23240;43.210;27.910;2023-03-23T06:41:49;101304.28;;;9.56;100.00
37368;BME280;23240;43.210;27.910;2023-03-23T06:44:14;101305.75;;;9.47;100.00
37368;BME280;23240;43.210;27.910;2023-03-23T06:46:40;101305.97;;;9.57;100.00
37368;BME280;23240;43.210;27.910;2023-03-23T06:49:06;101304.38;;;9.67;100.00
37368;BME280;23240;43.210;27.910;2023-03-23T06:51:32;101310.63;;;9.67;100.00
37368;BME280;23240;43.210;27.910;2023-03-23T06:53:57;101313.72;;;9.74;100.00
37368;BME280;23240;43.210;27.910;2023-03-23T06:56:23;101314.78;;;9.84;100.00
37368;BME280;23240;43.210;27.910;2023-03-23T06:58:48;101314.13;;;9.81;100.00
37368;BME280;23240;43.210;27.910;2023-03-23T07:01:13;101310.91;;;9.75;100.00
37368;BME280;23240;43.210;27.910;2023-03-23T07:03:40;101317.13;;;9.63;100.00
37368;BME280;23240;43.210;27.910;2023-03-23T07:06:06;101316.28;;;9.75;100.00
37368;BME280;23240;43.210;27.910;2023-03-23T07:08:32;101316.94;;;9.79;100.00
37368;BME280;23240;43.210;27.910;2023-03-23T07:10:57;101320.13;;;9.84;100.00
37368;BME280;23240;43.210;27.910;2023-03-23T07:13:22;101314.34;;;9.90;100.00
37368;BME280;23240;43.210;27.910;2023-03-23T07:15:48;101310.19;;;9.99;100.00
37368;BME280;23240;43.210;27.910;2023-03-23T07:18:14;101322.19;;;10.06;100.00
37368;BME280;23240;43.210;27.910;2023-03-23T07:20:40;101315.75;;;10.09;100.00
37368;BME280;23240;43.210;27.910;2023-03-23T07:23:05;101314.13;;;10.19;100.00
37368;BME280;23240;43.210;27.910;2023-03-23T07:25:32;101314.56;;;10.38;100.00
37368;BME280;23240;43.210;27.910;2023-03-23T07:27:58;101316.38;;;10.38;100.00
37368;BME280;23240;43.210;27.910;2023-03-23T07:30:23;101319.13;;;10.49;100.00
37368;BME280;23240;43.210;27.910;2023-03-23T07:32:49;101321.72;;;10.50;100.00
37368;BME280;23240;43.210;27.910;2023-03-23T07:35:14;101319.69;;;10.54;100.00
37368;BME280;23240;43.210;27.910;2023-03-23T07:37:39;101315.19;;;10.42;100.00
37368;BME280;23240;43.210;27.910;2023-03-23T07:40:05;101309.53;;;10.34;100.00
37368;BME280;23240;43.210;27.910;2023-03-23T07:42:34;101309.84;;;10.42;100.00
37368;BME280;23240;43.210;27.910;2023-03-23T07:44:59;101314.53;;;10.64;100.00
37368;BME280;23240;43.210;27.910;2023-03-23T07:47:25;101301.53;;;10.70;100.00
37368;BME280;23240;43.210;27.910;2023-03-23T07:49:51;101307.13;;;10.91;100.00
37368;BME280;23240;43.210;27.910;2023-03-23T07:52:16;101310.13;;;11.11;100.00
37368;BME280;23240;43.210;27.910;2023-03-23T07:54:42;101313.44;;;11.14;100.00
37368;BME280;23240;43.210;27.910;2023-03-23T07:57:08;101308.97;;;11.26;100.00
37368;BME280;23240;43.210;27.910;2023-03-23T07:59:33;101316.75;;;11.42;100.00
37368;BME280;23240;43.210;27.910;2023-03-23T08:01:58;101321.44;;;11.62;100.00
37368;BME280;23240;43.210;27.910;2023-03-23T08:04:24;101321.56;;;11.61;100.00
37368;BME280;23240;43.210;27.910;2023-03-23T08:06:49;101323.31;;;11.38;100.00
37368;BME280;23240;43.210;27.910;2023-03-23T08:09:15;101322.28;;;11.27;100.00
37368;BME280;23240;43.210;27.910;2023-03-23T08:11:40;101319.84;;;11.24;100.00
37368;BME280;23240;43.210;27.910;2023-03-23T08:14:06;101325.78;;;11.52;100.00
37368;BME280;23240;43.210;27.910;2023-03-23T08:16:32;101324.41;;;11.81;100.00
37368;BME280;23240;43.210;27.910;2023-03-23T08:18:57;101327.22;;;11.80;100.00
37368;BME280;23240;43.210;27.910;2023-03-23T08:21:23;101324.63;;;11.78;100.00
37368;BME280;23240;43.210;27.910;2023-03-23T08:23:48;101328.38;;;11.65;100.00
37368;BME280;23240;43.210;27.910;2023-03-23T08:26:14;101333.34;;;11.47;100.00
37368;BME280;23240;43.210;27.910;2023-03-23T08:28:40;101333.13;;;11.26;100.00
37368;BME280;23240;43.210;27.910;2023-03-23T08:31:07;101333.63;;;11.07;100.00
37368;BME280;23240;43.210;27.910;2023-03-23T08:33:32;101329.41;;;10.92;100.00
37368;BME280;23240;43.210;27.910;2023-03-23T08:35:58;101331.41;;;11.01;100.00
37368;BME280;23240;43.210;27.910;2023-03-23T08:38:24;101338.09;;;11.19;100.00
37368;BME280;23240;43.210;27.910;2023-03-23T08:40:50;101334.19;;;11.47;100.00
37368;BME280;23240;43.210;27.910;2023-03-23T08:43:15;101336.53;;;11.52;100.00
37368;BME280;23240;43.210;27.910;2023-03-23T08:45:41;101335.69;;;11.27;100.00
37368;BME280;23240;43.210;27.910;2023-03-23T08:48:06;101339.72;;;11.22;100.00
37368;BME280;23240;43.210;27.910;2023-03-23T08:50:32;101342.59;;;11.19;100.00
37368;BME280;23240;43.210;27.910;2023-03-23T08:52:58;101341.97;;;11.15;100.00
37368;BME280;23240;43.210;27.910;2023-03-23T08:55:23;101339.78;;;11.20;100.00
37368;BME280;23240;43.210;27.910;2023-03-23T08:57:49;101341.59;;;11.44;100.00
37368;BME280;23240;43.210;27.910;2023-03-23T09:00:16;101333.16;;;11.61;100.00
37368;BME280;23240;43.210;27.910;2023-03-23T09:02:46;101330.84;;;11.68;100.00
37368;BME280;23240;43.210;27.910;2023-03-23T09:05:12;101339.25;;;11.74;100.00
37368;BME280;23240;43.210;27.910;2023-03-23T09:07:39;101335.38;;;11.78;100.00
37368;BME280;23240;43.210;27.910;2023-03-23T09:10:05;101329.31;;;11.99;100.00
37368;BME280;23240;43.210;27.910;2023-03-23T09:12:30;101326.19;;;12.16;100.00
37368;BME280;23240;43.210;27.910;2023-03-23T09:14:56;101325.34;;;12.38;100.00
37368;BME280;23240;43.210;27.910;2023-03-23T09:17:22;101335.06;;;12.61;100.00
37368;BME280;23240;43.210;27.910;2023-03-23T09:19:47;101324.91;;;12.88;100.00
37368;BME280;23240;43.210;27.910;2023-03-23T09:22:12;101329.44;;;13.19;100.00
37368;BME280;23240;43.210;27.910;2023-03-23T09:24:38;101322.91;;;13.44;100.00
37368;BME280;23240;43.210;27.910;2023-03-23T09:27:04;101318.53;;;13.64;100.00
37368;BME280;23240;43.210;27.910;2023-03-23T09:29:30;101315.81;;;13.85;100.00
37368;BME280;23240;43.210;27.910;2023-03-23T09:31:55;101313.09;;;14.06;100.00
37368;BME280;23240;43.210;27.910;2023-03-23T09:34:21;101319.81;;;13.91;100.00
37368;BME280;23240;43.210;27.910;2023-03-23T09:36:47;101317.22;;;13.79;100.00
37368;BME280;23240;43.210;27.910;2023-03-23T09:39:13;101327.78;;;13.71;100.00
37368;BME280;23240;43.210;27.910;2023-03-23T09:41:43;101324.69;;;13.55;100.00
37368;BME280;23240;43.210;27.910;2023-03-23T09:46:50;101325.53;;;13.55;100.00
37368;BME280;23240;43.210;27.910;2023-03-23T09:49:36;101322.38;;;13.50;100.00
37368;BME280;23240;43.210;27.910;2023-03-23T09:54:45;101321.41;;;13.72;100.00
37368;BME280;23240;43.210;27.910;2023-03-23T09:57:28;101321.47;;;13.82;100.00
37368;BME280;23240;43.210;27.910;2023-03-23T10:00:12;101319.56;;;13.73;100.00
37368;BME280;23240;43.210;27.910;2023-03-23T10:02:48;101317.13;;;13.91;100.00
37368;BME280;23240;43.210;27.910;2023-03-23T10:05:22;101318.28;;;14.19;100.00
37368;BME280;23240;43.210;27.910;2023-03-23T10:07:50;101319.13;;;14.50;100.00
37368;BME280;23240;43.210;27.910;2023-03-23T10:10:15;101307.69;;;14.67;100.00
37368;BME280;23240;43.210;27.910;2023-03-23T10:12:45;101304.91;;;14.98;100.00
37368;BME280;23240;43.210;27.910;2023-03-23T10:22:49;101308.63;;;15.06;100.00
37368;BME280;23240;43.210;27.910;2023-03-23T10:25:19;101303.38;;;14.95;100.00
37368;BME280;23240;43.210;27.910;2023-03-23T10:27:47;101307.34;;;15.01;100.00
37368;BME280;23240;43.210;27.910;2023-03-23T10:30:19;101298.97;;;15.04;100.00
37368;BME280;23240;43.210;27.910;2023-03-23T10:35:15;101301.19;;;14.79;100.00
37368;BME280;23240;43.210;27.910;2023-03-23T10:37:44;101300.66;;;14.95;100.00
37368;BME280;23240;43.210;27.910;2023-03-23T10:40:22;101299.94;;;15.03;100.00
37368;BME280;23240;43.210;27.910;2023-03-23T10:42:49;101296.72;;;15.09;100.00
37368;BME280;23240;43.210;27.910;2023-03-23T10:45:19;101298.69;;;15.26;100.00
37368;BME280;23240;43.210;27.910;2023-03-23T10:47:48;101293.28;;;15.46;100.00
37368;BME280;23240;43.210;27.910;2023-03-23T10:50:17;101293.13;;;15.57;100.00
37368;BME280;23240;43.210;27.910;2023-03-23T10:52:43;101290.72;;;15.54;100.00
37368;BME280;23240;43.210;27.910;2023-03-23T10:55:19;101287.88;;;15.36;100.00
37368;BME280;23240;43.210;27.910;2023-03-23T10:57:47;101288.31;;;14.93;100.00
37368;BME280;23240;43.210;27.910;2023-03-23T11:00:20;101289.25;;;14.72;100.00
37368;BME280;23240;43.210;27.910;2023-03-23T11:02:59;101283.72;;;14.74;100.00
37368;BME280;23240;43.210;27.910;2023-03-23T11:05:26;101280.63;;;14.38;100.00
37368;BME280;23240;43.210;27.910;2023-03-23T11:07:54;101281.56;;;14.18;100.00
37368;BME280;23240;43.210;27.910;2023-03-23T11:10:27;101278.66;;;14.09;100.00
37368;BME280;23240;43.210;27.910;2023-03-23T11:12:55;101275.13;;;14.09;100.00
37368;BME280;23240;43.210;27.910;2023-03-23T11:15:25;101281.28;;;13.90;100.00
37368;BME280;23240;43.210;27.910;2023-03-23T11:18:01;101269.69;;;13.99;100.00
37368;BME280;23240;43.210;27.910;2023-03-23T11:20:28;101273.97;;;14.11;100.00
37368;BME280;23240;43.210;27.910;2023-03-23T11:22:54;101273.72;;;14.14;100.00
37368;BME280;23240;43.210;27.910;2023-03-23T11:25:20;101271.53;;;13.99;100.00
37368;BME280;23240;43.210;27.910;2023-03-23T11:27:46;101269.75;;;14.09;100.00
37368;BME280;23240;43.210;27.910;2023-03-23T11:30:19;101274.03;;;14.21;100.00
37368;BME280;23240;43.210;27.910;2023-03-23T11:32:46;101273.97;;;14.11;100.00
37368;BME280;23240;43.210;27.910;2023-03-23T11:35:20;101269.38;;;13.93;100.00
37368;BME280;23240;43.210;27.910;2023-03-23T11:37:55;101272.88;;;13.62;100.00
37368;BME280;23240;43.210;27.910;2023-03-23T11:40:29;101272.03;;;13.41;100.00
37368;BME280;23240;43.210;27.910;2023-03-23T11:42:58;101265.38;;;13.24;100.00
37368;BME280;23240;43.210;27.910;2023-03-23T11:45:34;101275.06;;;13.16;100.00
37368;BME280;23240;43.210;27.910;2023-03-23T11:50:26;101275.19;;;13.25;100.00
37368;BME280;23240;43.210;27.910;2023-03-23T11:53:55;101275.91;;;13.16;100.00
37368;BME280;23240;43.210;27.910;2023-03-23T11:56:04;101270.25;;;12.98;100.00
37368;BME280;23240;43.210;27.910;2023-03-23T11:58:31;101267.97;;;12.82;100.00
37368;BME280;23240;43.210;27.910;2023-03-23T12:08:58;101258.78;;;12.42;100.00
37368;BME280;23240;43.210;27.910;2023-03-23T12:11:45;101256.72;;;12.34;100.00
37368;BME280;23240;43.210;27.910;2023-03-23T12:32:13;101250.63;;;11.41;100.00
37368;BME280;23240;43.210;27.910;2023-03-23T12:34:45;101258.19;;;11.36;100.00
37368;BME280;23240;43.210;27.910;2023-03-23T12:40:08;101249.13;;;11.25;100.00
37368;BME280;23240;43.210;27.910;2023-03-23T12:45:42;101247.91;;;11.18;100.00
37368;BME280;23240;43.210;27.910;2023-03-23T12:48:15;101249.78;;;11.05;100.00
37368;BME280;23240;43.210;27.910;2023-03-23T12:50:59;101254.16;;;10.95;100.00
37368;BME280;23240;43.210;27.910;2023-03-23T12:53:34;101245.97;;;10.96;100.00
37368;BME280;23240;43.210;27.910;2023-03-23T12:56:37;101251.97;;;11.00;100.00
37368;BME280;23240;43.210;27.910;2023-03-23T12:58:59;101248.44;;;10.99;100.00
37368;BME280;23240;43.210;27.910;2023-03-23T13:01:37;101243.19;;;10.98;100.00
37368;BME280;23240;43.210;27.910;2023-03-23T13:04:27;101237.22;;;10.94;100.00
37368;BME280;23240;43.210;27.910;2023-03-23T13:06:51;101239.75;;;10.96;100.00
37368;BME280;23240;43.210;27.910;2023-03-23T13:11:52;101229.84;;;11.09;100.00
37368;BME280;23240;43.210;27.910;2023-03-23T13:21:43;101223.34;;;11.58;100.00
37368;BME280;23240;43.210;27.910;2023-03-23T13:24:15;101224.56;;;11.65;100.00
37368;BME280;23240;43.210;27.910;2023-03-23T13:26:43;101224.34;;;11.79;100.00
37368;BME280;23240;43.210;27.910;2023-03-23T13:29:18;101219.84;;;11.80;100.00
37368;BME280;23240;43.210;27.910;2023-03-23T13:31:45;101219.25;;;11.76;100.00
37368;BME280;23240;43.210;27.910;2023-03-23T13:34:24;101222.25;;;11.49;100.00
37368;BME280;23240;43.210;27.910;2023-03-23T13:36:54;101222.09;;;11.40;100.00
37368;BME280;23240;43.210;27.910;2023-03-23T13:39:24;101218.84;;;11.47;100.00
37368;BME280;23240;43.210;27.910;2023-03-23T13:44:25;101209.19;;;11.45;100.00
37368;BME280;23240;43.210;27.910;2023-03-23T13:47:05;101209.47;;;11.53;100.00
37368;BME280;23240;43.210;27.910;2023-03-23T13:49:31;101209.09;;;11.69;100.00
37368;BME280;23240;43.210;27.910;2023-03-23T13:52:06;101204.13;;;11.75;100.00
37368;BME280;23240;43.210;27.910;2023-03-23T13:54:42;101204.94;;;11.65;100.00
37368;BME280;23240;43.210;27.910;2023-03-23T13:57:24;101211.91;;;11.67;100.00
37368;BME280;23240;43.210;27.910;2023-03-23T13:59:56;101212.41;;;11.72;100.00
37368;BME280;23240;43.210;27.910;2023-03-23T14:02:40;101205.81;;;11.76;100.00
37368;BME280;23240;43.210;27.910;2023-03-23T14:05:26;101215.13;;;11.83;100.00
37368;BME280;23240;43.210;27.910;2023-03-23T14:07:57;101218.78;;;11.82;100.00
37368;BME280;23240;43.210;27.910;2023-03-23T14:10:33;101224.59;;;11.76;100.00
37368;BME280;23240;43.210;27.910;2023-03-23T14:12:59;101216.06;;;11.71;100.00